Time;durP1;ratioP1;P1;durP2;ratioP2;P2;SDS_P1;SDS_P2;PMS_P1;PMS_P2;Temp;Humidity;BMP_temperature;BMP_pressure;BME280_temperature;BME280_humidity;BME280_pressure;Samples;Min_cycle;Max_cycle;Signal;HPM_P1;HPM_P2
2020/12/02 00:00:16;;;;;;;95.60;50.17;;;0.90;99.90;;;;;;5070659;28;20511;-81
2020/12/02 00:02:50;;;;;;;99.53;49.00;;;1.00;99.90;;;;;;5071366;28;20387;-82
2020/12/02 00:05:18;;;;;;;93.78;48.95;;;0.90;99.90;;;;;;5071577;28;20036;-80
2020/12/02 00:07:50;;;;;;;91.80;48.10;;;0.60;99.90;;;;;;5070110;28;20071;-81
2020/12/02 00:10:16;;;;;;;97.47;48.15;;;0.50;99.90;;;;;;5071277;28;20029;-80
2020/12/02 00:12:42;;;;;;;86.68;48.20;;;0.70;99.90;;;;;;5071093;28;20396;-79
2020/12/02 00:15:09;;;;;;;97.97;46.85;;;0.60;99.90;;;;;;5069916;28;20457;-81
2020/12/02 00:17:35;;;;;;;94.35;48.35;;;0.70;99.90;;;;;;5071323;28;20111;-80
2020/12/02 00:20:00;;;;;;;96.07;46.25;;;0.70;99.90;;;;;;5071084;28;20103;-81
2020/12/02 00:22:26;;;;;;;87.53;47.15;;;0.80;99.90;;;;;;5069635;28;20123;-81
2020/12/02 00:24:53;;;;;;;106.15;51.83;;;0.90;99.90;;;;;;5071181;28;20021;-81
2020/12/02 00:27:37;;;;;;;101.25;53.88;;;0.90;99.90;;;;;;5071298;28;20039;-79
2020/12/02 00:30:07;;;;;;;109.32;53.45;;;0.90;99.90;;;;;;5070880;28;20033;-82
2020/12/02 00:32:39;;;;;;;105.45;54.92;;;0.90;99.90;;;;;;5071376;28;20392;-80
2020/12/02 00:35:12;;;;;;;113.30;54.17;;;0.70;99.90;;;;;;5070996;28;20049;-81
2020/12/02 00:37:38;;;;;;;105.38;52.20;;;0.80;99.90;;;;;;5070182;28;20034;-82
2020/12/02 00:40:05;;;;;;;95.50;51.00;;;0.90;99.90;;;;;;5069620;28;20025;-80
2020/12/02 00:42:31;;;;;;;107.03;51.95;;;0.70;99.90;;;;;;5071326;28;20582;-81
2020/12/02 00:44:56;;;;;;;99.05;51.45;;;0.80;99.90;;;;;;5070801;28;20503;-81
2020/12/02 00:47:24;;;;;;;104.80;50.92;;;0.80;99.90;;;;;;5071048;28;20040;-82
2020/12/02 00:49:52;;;;;;;92.47;48.55;;;0.80;99.90;;;;;;5069873;28;20125;-81
2020/12/02 00:52:19;;;;;;;95.40;50.38;;;0.80;99.90;;;;;;5069818;28;20040;-81
2020/12/02 00:54:45;;;;;;;100.03;52.88;;;0.40;99.90;;;;;;5069524;28;20024;-81
2020/12/02 00:57:21;;;;;;;107.80;55.28;;;0.50;99.90;;;;;;5071096;28;20029;-81
2020/12/02 00:59:54;;;;;;;101.22;54.25;;;0.40;99.90;;;;;;5070814;28;20468;-81
2020/12/02 01:02:25;;;;;;;115.15;57.53;;;0.40;99.90;;;;;;5069651;28;20024;-81
2020/12/02 01:04:51;;;;;;;113.25;55.33;;;0.30;99.90;;;;;;5069751;28;20032;-82
2020/12/02 01:07:17;;;;;;;104.63;56.47;;;0.20;99.90;;;;;;5069781;28;20108;-81
2020/12/02 01:09:43;;;;;;;103.78;54.45;;;0.20;99.90;;;;;;5070600;28;20108;-82
2020/12/02 01:12:14;;;;;;;107.03;54.85;;;0.10;99.90;;;;;;5069597;28;20476;-81
2020/12/02 01:14:42;;;;;;;107.35;55.55;;;0.20;99.90;;;;;;5070752;28;20031;-82
2020/12/02 01:17:09;;;;;;;107.88;56.75;;;0.40;99.90;;;;;;5069342;28;20025;-81
2020/12/02 01:19:38;;;;;;;125.57;59.72;;;0.50;99.90;;;;;;5069588;28;20064;-81
2020/12/02 01:22:40;;;;;;;97.25;53.38;;;0.30;99.90;;;;;;5069515;28;20376;-82
2020/12/02 01:25:21;;;;;;;97.03;53.35;;;0.40;99.90;;;;;;4992127;28;20455;-81
2020/12/02 01:28:03;;;;;;;100.18;53.45;;;0.40;99.90;;;;;;5062077;28;20032;-81
2020/12/02 01:30:30;;;;;;;98.88;50.45;;;0.40;99.90;;;;;;5069267;28;20058;-83
2020/12/02 01:32:56;;;;;;;100.78;47.17;;;0.20;99.90;;;;;;5070916;28;20030;-83
2020/12/02 01:35:25;;;;;;;93.93;46.08;;;0.00;99.90;;;;;;5073027;28;20058;-83
2020/12/02 01:38:12;;;;;;;88.20;46.85;;;0.00;99.90;;;;;;5072871;28;20028;-83
2020/12/02 01:40:37;;;;;;;91.68;47.22;;;0.20;99.90;;;;;;5072833;28;20028;-82
2020/12/02 01:43:12;;;;;;;97.68;51.63;;;0.20;99.90;;;;;;5072639;28;20031;-81
2020/12/02 01:45:43;;;;;;;113.25;51.88;;;0.20;99.90;;;;;;5074023;28;20032;-83
2020/12/02 01:48:22;;;;;;;99.30;52.13;;;0.10;99.90;;;;;;5072709;28;20035;-82
2020/12/02 01:51:12;;;;;;;107.35;55.13;;;0.10;99.90;;;;;;5072644;28;20075;-82
2020/12/02 01:53:50;;;;;;;104.15;55.17;;;0.30;99.90;;;;;;5072620;28;20399;-82
2020/12/02 01:56:24;;;;;;;106.53;54.00;;;0.30;99.90;;;;;;5072615;28;20024;-82
2020/12/02 01:58:59;;;;;;;101.05;52.55;;;0.30;99.90;;;;;;5073836;28;20059;-82
2020/12/02 02:01:43;;;;;;;92.97;51.35;;;0.00;99.90;;;;;;5072715;28;20110;-83
2020/12/02 02:04:17;;;;;;;98.95;50.58;;;0.00;99.90;;;;;;5073928;28;20082;-82
2020/12/02 02:07:07;;;;;;;97.53;51.28;;;0.00;99.90;;;;;;5072364;28;20469;-81
2020/12/02 02:09:33;;;;;;;89.80;50.25;;;-0.20;99.90;;;;;;5072323;28;20695;-83
2020/12/02 02:12:19;;;;;;;91.28;46.92;;;-0.10;99.90;;;;;;5073244;28;20066;-82
2020/12/02 02:15:06;;;;;;;90.43;45.35;;;-0.10;99.90;;;;;;5055544;28;20064;-80
2020/12/02 02:17:31;;;;;;;80.80;44.55;;;0.00;99.90;;;;;;5073255;28;20032;-81
2020/12/02 02:19:59;;;;;;;79.72;45.17;;;0.10;99.90;;;;;;5073495;28;20040;-82
2020/12/02 02:22:25;;;;;;;79.97;39.20;;;0.20;99.90;;;;;;5071850;28;20031;-81
2020/12/02 02:24:51;;;;;;;76.38;40.10;;;0.20;99.90;;;;;;5073455;28;20036;-82
2020/12/02 02:27:22;;;;;;;73.07;39.65;;;0.10;99.90;;;;;;5073393;28;20380;-82
2020/12/02 02:29:47;;;;;;;76.25;40.72;;;-0.20;99.90;;;;;;5072613;28;20032;-82
2020/12/02 02:32:20;;;;;;;73.78;37.58;;;-0.30;99.90;;;;;;5073011;28;20044;-81
2020/12/02 02:34:49;;;;;;;85.07;43.17;;;-0.50;99.90;;;;;;5071362;28;20040;-82
2020/12/02 02:37:17;;;;;;;82.60;43.35;;;-0.50;99.90;;;;;;5071748;28;20387;-81
2020/12/02 02:39:43;;;;;;;74.45;41.42;;;-0.30;99.90;;;;;;5071663;28;20028;-81
2020/12/02 02:42:23;;;;;;;87.13;46.33;;;-0.20;99.90;;;;;;5072521;28;20031;-82
2020/12/02 02:44:50;;;;;;;90.13;46.10;;;0.00;99.90;;;;;;5071130;28;20028;-82
2020/12/02 02:47:16;;;;;;;84.65;44.47;;;-0.20;99.90;;;;;;5072480;28;20384;-81
2020/12/02 02:49:42;;;;;;;84.78;43.28;;;-0.40;99.90;;;;;;5072926;28;20031;-81
2020/12/02 02:52:08;;;;;;;74.93;41.55;;;-0.30;99.90;;;;;;5072535;28;20043;-81
2020/12/02 02:54:34;;;;;;;88.68;43.60;;;-0.40;99.90;;;;;;5071236;28;20104;-83
2020/12/02 02:57:00;;;;;;;89.47;43.50;;;-0.30;99.90;;;;;;5071057;28;20063;-83
2020/12/02 02:59:26;;;;;;;92.93;44.88;;;-0.20;99.90;;;;;;5071251;28;20106;-83
2020/12/02 03:01:52;;;;;;;90.88;45.38;;;-0.20;99.90;;;;;;5071086;28;20028;-82
2020/12/02 03:04:17;;;;;;;84.47;44.22;;;-0.10;99.90;;;;;;5054298;28;20029;-82
2020/12/02 03:06:43;;;;;;;91.70;44.53;;;-0.10;99.90;;;;;;5072570;28;20024;-83
2020/12/02 03:09:12;;;;;;;84.13;40.55;;;-0.30;99.90;;;;;;5072383;28;20028;-83
2020/12/02 03:11:39;;;;;;;81.43;39.92;;;-0.40;99.90;;;;;;5070947;28;20123;-83
2020/12/02 03:14:05;;;;;;;92.82;41.33;;;-0.20;99.90;;;;;;5070981;28;20020;-84
2020/12/02 03:16:44;;;;;;;78.63;41.83;;;0.00;99.90;;;;;;5070890;28;20048;-82
2020/12/02 03:19:21;;;;;;;88.18;42.90;;;-0.30;99.90;;;;;;5071106;28;20028;-83
2020/12/02 03:21:48;;;;;;;85.57;43.20;;;-0.10;99.90;;;;;;5072103;28;20033;-80
2020/12/02 03:24:15;;;;;;;77.97;42.35;;;-0.10;99.90;;;;;;5071911;28;20020;-80
2020/12/02 03:26:41;;;;;;;89.13;47.05;;;0.00;99.90;;;;;;5071952;28;20257;-81
2020/12/02 03:29:08;;;;;;;89.00;45.85;;;-0.10;99.90;;;;;;5070678;28;20090;-82
2020/12/02 03:31:34;;;;;;;98.20;46.28;;;-0.10;99.90;;;;;;5071743;28;20033;-82
2020/12/02 03:34:00;;;;;;;88.95;45.90;;;-0.40;99.90;;;;;;5072113;28;20059;-82
2020/12/02 03:36:26;;;;;;;87.57;44.47;;;-0.20;99.90;;;;;;5071800;28;20068;-81
2020/12/02 03:38:54;;;;;;;87.70;45.47;;;-0.20;99.90;;;;;;5070420;28;20111;-82
2020/12/02 03:41:21;;;;;;;90.72;45.35;;;-0.20;99.90;;;;;;5070666;28;20384;-81
2020/12/02 03:43:46;;;;;;;85.30;47.22;;;-0.20;99.90;;;;;;5070448;28;20023;-82
2020/12/02 03:46:13;;;;;;;85.05;43.92;;;-0.30;99.90;;;;;;5072021;28;20024;-81
2020/12/02 03:48:38;;;;;;;90.85;46.10;;;-0.40;99.90;;;;;;5070035;28;20028;-82
2020/12/02 03:51:05;;;;;;;78.97;44.05;;;-0.20;99.90;;;;;;5071647;28;20028;-82
2020/12/02 03:53:31;;;;;;;91.60;46.45;;;-0.50;99.90;;;;;;5070252;28;20021;-82
2020/12/02 03:55:57;;;;;;;75.72;43.55;;;-0.80;99.90;;;;;;5070267;28;20384;-81
2020/12/02 03:58:23;;;;;;;83.85;41.83;;;-0.50;99.90;;;;;;5070930;28;20476;-83
2020/12/02 04:00:49;;;;;;;83.70;42.45;;;-0.30;99.90;;;;;;5071355;28;20029;-81
2020/12/02 04:03:15;;;;;;;88.13;40.83;;;-0.40;99.90;;;;;;5070081;28;20031;-82
2020/12/02 04:05:41;;;;;;;75.85;42.08;;;-0.50;99.90;;;;;;5071942;28;20031;-81
2020/12/02 04:08:07;;;;;;;79.78;40.40;;;-0.50;99.90;;;;;;5069957;28;20024;-81
2020/12/02 04:10:34;;;;;;;82.55;40.25;;;-0.30;99.90;;;;;;5071370;28;20024;-80
2020/12/02 04:13:00;;;;;;;76.88;42.13;;;-0.30;99.90;;;;;;5070118;28;20032;-81
2020/12/02 04:15:26;;;;;;;80.28;39.83;;;-0.80;99.90;;;;;;5071418;28;20040;-81
2020/12/02 04:17:52;;;;;;;79.25;41.55;;;-0.70;99.90;;;;;;5071256;28;20021;-81
2020/12/02 04:20:20;;;;;;;90.60;44.40;;;-0.50;99.90;;;;;;5071666;28;20054;-81
2020/12/02 04:22:48;;;;;;;92.72;46.28;;;-0.30;99.90;;;;;;5069775;28;20068;-80
2020/12/02 04:25:15;;;;;;;89.40;48.22;;;-0.20;99.90;;;;;;5071295;28;20492;-81
2020/12/02 04:27:41;;;;;;;94.40;46.58;;;-0.30;99.90;;;;;;5071112;28;20058;-82
2020/12/02 04:30:07;;;;;;;87.38;45.45;;;-0.20;99.90;;;;;;5071584;28;20025;-80
2020/12/02 04:32:34;;;;;;;81.13;44.78;;;-0.40;99.90;;;;;;5071076;28;20032;-81
2020/12/02 04:35:02;;;;;;;92.75;46.42;;;-0.30;99.90;;;;;;5071178;28;20051;-81
2020/12/02 04:37:32;;;;;;;89.72;44.60;;;-0.30;99.90;;;;;;5071050;28;20029;-80
2020/12/02 04:39:58;;;;;;;88.10;46.55;;;-0.40;99.90;;;;;;5071379;28;20040;-81
2020/12/02 04:42:29;;;;;;;96.07;49.17;;;-0.20;99.90;;;;;;5070841;28;20595;-80
2020/12/02 04:44:55;;;;;;;102.55;50.28;;;-0.10;99.90;;;;;;5071136;28;20023;-81
2020/12/02 04:47:33;;;;;;;99.28;51.80;;;-0.20;99.90;;;;;;5069858;28;20032;-80
2020/12/02 04:50:01;;;;;;;97.05;47.05;;;-0.40;99.90;;;;;;5071471;28;20029;-82
2020/12/02 04:52:27;;;;;;;90.53;47.20;;;-0.50;99.90;;;;;;5070053;28;20048;-81
2020/12/02 04:54:53;;;;;;;82.43;44.50;;;-0.40;99.90;;;;;;5069520;28;20109;-79
2020/12/02 04:57:19;;;;;;;89.13;44.10;;;-0.40;99.90;;;;;;5071079;28;20118;-81
2020/12/02 04:59:45;;;;;;;87.57;44.63;;;-0.30;99.90;;;;;;5070887;28;20063;-81
2020/12/02 05:02:26;;;;;;;88.40;45.33;;;-0.20;99.90;;;;;;5071385;28;20028;-81
2020/12/02 05:04:54;;;;;;;90.78;45.58;;;-0.40;99.90;;;;;;5071089;28;20368;-81
2020/12/02 05:07:20;;;;;;;87.35;42.80;;;-0.20;99.90;;;;;;5070881;28;20115;-81
2020/12/02 05:09:55;;;;;;;80.47;41.63;;;-0.40;99.90;;;;;;5074157;28;20036;-80
2020/12/02 05:12:31;;;;;;;81.93;42.08;;;-0.30;99.90;;;;;;5073425;28;20036;-81
2020/12/02 05:15:29;;;;;;;77.45;39.78;;;-0.30;99.90;;;;;;5073260;28;20113;-81
2020/12/02 05:18:21;;;;;;;83.45;41.33;;;-0.30;99.90;;;;;;5040689;28;20036;-81
2020/12/02 05:21:19;;;;;;;82.88;40.67;;;-0.50;99.90;;;;;;5074905;28;20100;-81
2020/12/02 05:24:02;;;;;;;83.90;42.65;;;-0.20;99.90;;;;;;5029288;28;20039;-82
2020/12/02 05:26:31;;;;;;;85.30;41.83;;;-0.20;99.90;;;;;;5074729;28;20043;-81
2020/12/02 05:28:57;;;;;;;88.65;41.78;;;-0.30;99.90;;;;;;5074189;28;20051;-82
2020/12/02 05:31:30;;;;;;;87.90;43.03;;;-0.70;99.90;;;;;;5072940;28;20111;-81
2020/12/02 05:34:07;;;;;;;78.72;41.97;;;-0.70;99.90;;;;;;5074060;28;20349;-81
2020/12/02 05:36:37;;;;;;;74.65;42.08;;;-0.40;99.90;;;;;;5074142;28;20059;-82
2020/12/02 05:39:10;;;;;;;78.88;42.92;;;-0.20;99.90;;;;;;5072710;28;20028;-82
2020/12/02 05:41:37;;;;;;;88.20;44.97;;;-0.20;99.90;;;;;;5072777;28;20039;-81
2020/12/02 05:44:16;;;;;;;83.22;43.35;;;-0.20;99.90;;;;;;5073910;28;20028;-81
2020/12/02 05:46:49;;;;;;;91.53;43.83;;;-0.20;99.90;;;;;;5073929;28;20021;-80
2020/12/02 05:49:39;;;;;;;94.32;46.83;;;-0.10;99.90;;;;;;5072527;28;20408;-81
2020/12/02 05:52:31;;;;;;;84.90;45.10;;;0.00;99.90;;;;;;5072624;28;20445;-81
2020/12/02 05:55:04;;;;;;;93.20;47.45;;;-0.10;99.90;;;;;;5073262;28;20044;-82
2020/12/02 05:57:32;;;;;;;101.95;47.97;;;-0.20;99.90;;;;;;5073943;28;20078;-81
2020/12/02 05:59:58;;;;;;;105.30;48.28;;;-0.20;99.90;;;;;;5072365;28;20024;-81
2020/12/02 06:02:25;;;;;;;92.15;49.47;;;-0.40;99.90;;;;;;5072465;28;20059;-82
2020/12/02 06:04:54;;;;;;;97.70;49.28;;;-0.50;99.90;;;;;;5073729;28;20468;-81
2020/12/02 06:07:22;;;;;;;104.00;50.55;;;-0.40;99.90;;;;;;5073638;28;20430;-81
2020/12/02 06:09:50;;;;;;;106.20;51.15;;;-0.40;99.90;;;;;;5073594;28;20040;-81
2020/12/02 06:12:22;;;;;;;105.93;53.40;;;-0.30;99.90;;;;;;5068542;28;20163;-81
2020/12/02 06:14:49;;;;;;;106.70;50.20;;;-0.30;99.90;;;;;;5070015;28;20561;-82
2020/12/02 06:17:30;;;;;;;104.80;49.35;;;-0.40;99.90;;;;;;5071745;28;20024;-80
2020/12/02 06:19:57;;;;;;;103.45;50.15;;;-0.50;99.90;;;;;;5070940;28;20086;-81
2020/12/02 06:22:45;;;;;;;114.57;54.55;;;-0.30;99.90;;;;;;5071743;28;20032;-84
2020/12/02 06:25:46;;;;;;;111.75;53.97;;;-0.10;99.90;;;;;;5072019;28;20024;-84
2020/12/02 06:28:30;;;;;;;100.10;52.30;;;-0.20;99.90;;;;;;5072815;28;20043;-84
2020/12/02 06:31:17;;;;;;;108.57;50.53;;;0.00;99.90;;;;;;5072456;28;20119;-86
2020/12/02 06:33:45;;;;;;;193.00;85.45;;;0.40;99.90;;;;;;5054624;28;20384;-83
2020/12/02 06:36:28;;;;;;;113.30;58.15;;;0.30;99.90;;;;;;5071435;28;20052;-85
2020/12/02 06:39:09;;;;;;;115.28;58.35;;;0.40;99.90;;;;;;5073367;28;20027;-81
2020/12/02 06:41:38;;;;;;;;;;;0.40;99.90;;;;;;5072328;28;20055;-85
2020/12/02 06:44:40;;;;;;;109.20;51.45;;;0.40;99.90;;;;;;5072981;28;19918;-82
2020/12/02 06:47:18;;;;;;;104.95;50.88;;;0.50;99.90;;;;;;5071495;28;20032;-81
2020/12/02 06:49:45;;;;;;;108.10;52.63;;;0.50;99.90;;;;;;5053500;28;20033;-85
2020/12/02 06:52:25;;;;;;;107.35;54.58;;;0.50;99.90;;;;;;5072664;28;20093;-81
2020/12/02 06:55:03;;;;;;;99.50;50.28;;;0.50;99.90;;;;;;5071070;28;20020;-82
2020/12/02 06:57:30;;;;;;;112.13;55.85;;;0.50;99.90;;;;;;5071170;28;20063;-82
2020/12/02 06:59:59;;;;;;;114.22;57.55;;;0.70;99.90;;;;;;5071139;28;20028;-81
2020/12/02 07:02:46;;;;;;;117.40;60.83;;;0.90;99.90;;;;;;5070978;28;20036;-84
2020/12/02 07:05:38;;;;;;;114.70;58.05;;;1.00;99.90;;;;;;5072049;28;20032;-82
2020/12/02 07:08:16;;;;;;;127.35;57.08;;;1.10;99.90;;;;;;5064245;28;20040;-84
2020/12/02 07:10:56;;;;;;;124.55;60.50;;;1.40;99.90;;;;;;5072561;28;20055;-86
2020/12/02 07:13:24;;;;;;;140.55;68.88;;;1.80;99.90;;;;;;5070860;28;20032;-81
2020/12/02 07:15:50;;;;;;;120.55;58.58;;;2.00;99.00;;;;;;5071955;28;20073;-79
2020/12/02 07:18:24;;;;;;;99.15;52.47;;;2.00;98.30;;;;;;5053902;28;20119;-82
2020/12/02 07:21:24;;;;;;;102.90;53.63;;;2.10;98.10;;;;;;5070439;28;20140;-84
2020/12/02 07:23:50;;;;;;;103.47;52.75;;;2.20;98.00;;;;;;5070451;28;20029;-84
2020/12/02 07:26:17;;;;;;;105.50;53.63;;;2.30;97.40;;;;;;5071740;28;20029;-82
2020/12/02 07:28:43;;;;;;;97.20;51.47;;;2.20;97.80;;;;;;5071901;28;20733;-83
2020/12/02 07:31:23;;;;;;;115.75;57.47;;;2.00;97.60;;;;;;5068824;28;20020;-85
2020/12/02 07:34:11;;;;;;;108.72;58.20;;;2.20;98.20;;;;;;5067045;28;20451;-84
2020/12/02 07:36:37;;;;;;;115.25;59.97;;;2.50;97.90;;;;;;5073775;28;20035;-84
2020/12/02 07:39:17;;;;;;;105.45;55.33;;;2.60;97.00;;;;;;5080829;28;20062;-83
2020/12/02 07:42:07;;;;;;;113.22;56.20;;;2.80;96.10;;;;;;5071261;28;20468;-85
2020/12/02 07:44:56;;;;;;;105.77;55.67;;;2.70;96.00;;;;;;5069195;28;20069;-84
2020/12/02 07:47:22;;;;;;;106.57;56.50;;;3.10;95.30;;;;;;5066446;28;20668;-84
2020/12/02 07:49:59;;;;;;;102.32;55.55;;;3.30;94.80;;;;;;5068966;28;20545;-83
2020/12/02 07:52:38;;;;;;;104.38;60.08;;;3.40;94.00;;;;;;5068479;28;20036;-86
2020/12/02 07:55:05;;;;;;;115.25;60.55;;;3.40;94.00;;;;;;5069491;28;20016;-87
2020/12/02 07:57:34;;;;;;;104.88;60.05;;;3.80;93.50;;;;;;5069451;28;20392;-83
2020/12/02 08:00:32;;;;;;;111.97;58.08;;;3.70;92.70;;;;;;5070406;28;20061;-84
2020/12/02 08:02:57;;;;;;;105.30;58.10;;;4.00;93.00;;;;;;5070127;28;20109;-82
2020/12/02 08:05:42;;;;;;;112.70;60.28;;;4.30;92.30;;;;;;5071721;28;20474;-83
2020/12/02 08:08:08;;;;;;;115.90;61.17;;;4.60;91.30;;;;;;5091518;28;20048;-84
2020/12/02 08:10:36;;;;;;;107.90;60.55;;;4.70;90.70;;;;;;5091771;28;20056;-84
2020/12/02 08:13:15;;;;;;;110.28;60.08;;;4.80;90.20;;;;;;5090223;28;20054;-84
2020/12/02 08:15:54;;;;;;;117.75;59.92;;;4.30;90.20;;;;;;5090436;28;20052;-86
2020/12/02 08:18:24;;;;;;;108.50;59.25;;;4.70;90.40;;;;;;5090304;28;20062;-82
2020/12/02 08:20:50;;;;;;;98.20;54.85;;;5.10;89.20;;;;;;5087877;28;20114;-81
2020/12/02 08:23:36;;;;;;;91.93;51.13;;;5.30;87.90;;;;;;5072182;28;20391;-82
2020/12/02 08:26:14;;;;;;;81.68;48.25;;;5.50;87.30;;;;;;5067903;28;20050;-85
2020/12/02 08:28:40;;;;;;;81.05;46.28;;;5.80;86.10;;;;;;5068900;28;20051;-86
2020/12/02 08:31:27;;;;;;;78.43;44.63;;;5.80;85.00;;;;;;5071323;28;20032;-86
2020/12/02 08:34:13;;;;;;;83.40;47.15;;;6.10;83.70;;;;;;5068631;28;20017;-84
2020/12/02 08:36:49;;;;;;;85.45;46.95;;;5.50;86.30;;;;;;5076590;28;20051;-85
2020/12/02 08:39:31;;;;;;;87.60;46.70;;;5.70;85.00;;;;;;5070843;28;20028;-87
2020/12/02 08:41:57;;;;;;;91.50;44.10;;;5.30;86.10;;;;;;5068780;28;20111;-83
2020/12/02 08:44:23;;;;;;;79.97;46.63;;;5.30;87.50;;;;;;5071847;28;20388;-82
2020/12/02 08:47:00;;;;;;;81.75;47.15;;;5.30;88.00;;;;;;5074086;28;20100;-84
2020/12/02 08:49:31;;;;;;;73.15;43.70;;;5.40;86.90;;;;;;5068234;28;20040;-82
2020/12/02 08:51:58;;;;;;;75.90;45.55;;;5.60;86.00;;;;;;5084419;28;20063;-84
2020/12/02 08:54:25;;;;;;;72.72;44.53;;;5.80;85.90;;;;;;5093578;28;20055;-84
2020/12/02 08:57:03;;;;;;;78.57;44.15;;;6.10;84.10;;;;;;5094954;28;20510;-86
2020/12/02 08:59:29;;;;;;;73.32;43.33;;;6.00;83.80;;;;;;5095013;28;20047;-81
2020/12/02 09:02:01;;;;;;;73.95;42.65;;;5.90;84.50;;;;;;5095124;28;20436;-84
2020/12/02 09:04:34;;;;;;;73.25;42.63;;;6.20;85.10;;;;;;5093914;28;20059;-84
2020/12/02 09:07:00;;;;;;;68.80;41.20;;;6.60;83.30;;;;;;5092766;28;20075;-85
2020/12/02 09:09:41;;;;;;;71.57;42.22;;;7.00;81.60;;;;;;5093056;28;20126;-83
2020/12/02 09:12:08;;;;;;;71.43;43.22;;;7.30;79.70;;;;;;5093837;28;20097;-82
2020/12/02 09:14:35;;;;;;;71.88;43.13;;;7.30;78.90;;;;;;5093446;28;20050;-81
2020/12/02 09:17:01;;;;;;;80.00;45.88;;;7.20;78.80;;;;;;5093431;28;20025;-82
2020/12/02 09:19:27;;;;;;;80.72;47.85;;;7.20;78.80;;;;;;5094041;28;20032;-86
2020/12/02 09:21:53;;;;;;;85.70;51.70;;;7.20;79.60;;;;;;5085347;28;20071;-83
2020/12/02 09:24:19;;;;;;;88.88;51.22;;;7.10;79.70;;;;;;5074637;28;20051;-86
2020/12/02 09:26:46;;;;;;;84.75;51.85;;;7.30;79.90;;;;;;5074699;28;20052;-87
2020/12/02 09:29:13;;;;;;;89.78;51.38;;;6.90;81.60;;;;;;5075133;28;20032;-86
2020/12/02 09:31:40;;;;;;;91.80;50.53;;;7.00;82.00;;;;;;5073247;28;20419;-87
2020/12/02 09:34:07;;;;;;;100.80;52.35;;;7.50;80.70;;;;;;5074833;28;20032;-83
2020/12/02 09:36:34;;;;;;;98.05;54.67;;;7.60;80.00;;;;;;5079430;28;20448;-84
2020/12/02 09:39:00;;;;;;;100.13;54.33;;;8.10;78.90;;;;;;5094495;28;20119;-84
2020/12/02 09:41:51;;;;;;;85.97;55.83;;;8.50;77.10;;;;;;5094186;28;20059;-83
2020/12/02 09:44:23;;;;;;;89.00;54.30;;;8.40;76.60;;;;;;5094102;28;20025;-83
2020/12/02 09:46:59;;;;;;;89.63;54.10;;;8.50;75.70;;;;;;5094280;28;20017;-82
2020/12/02 09:49:25;;;;;;;90.75;54.70;;;8.70;75.10;;;;;;5081243;28;20060;-83
2020/12/02 09:52:04;;;;;;;96.78;57.05;;;8.90;74.50;;;;;;5082673;28;20036;-84
2020/12/02 09:54:39;;;;;;;90.80;51.83;;;9.00;73.50;;;;;;5069639;28;20353;-84
2020/12/02 09:57:12;;;;;;;84.28;51.47;;;8.60;74.40;;;;;;5068743;28;20055;-83
2020/12/02 09:59:38;;;;;;;81.10;49.80;;;8.90;74.80;;;;;;5071883;28;20017;-83
2020/12/02 10:02:08;;;;;;;80.50;49.88;;;9.10;74.10;;;;;;5072048;28;20021;-87
2020/12/02 10:04:42;;;;;;;82.82;47.45;;;9.30;73.70;;;;;;5074311;28;20028;-83
2020/12/02 10:07:27;;;;;;;70.40;45.80;;;9.40;73.10;;;;;;5085570;28;20031;-83
2020/12/02 10:10:10;;;;;;;82.70;45.90;;;9.00;74.10;;;;;;5093841;28;20085;-84
2020/12/02 10:12:51;;;;;;;73.55;43.42;;;8.20;78.80;;;;;;5093765;28;20119;-87
2020/12/02 10:15:27;;;;;;;;;;;9.10;75.60;;;;;;5090674;28;20032;-84
2020/12/02 10:18:11;;;;;;;62.03;37.40;;;9.40;74.60;;;;;;5071001;28;19908;-84
2020/12/02 10:20:45;;;;;;;57.25;35.90;;;9.50;74.00;;;;;;5070667;28;20392;-84
2020/12/02 10:23:28;;;;;;;54.75;32.58;;;9.50;74.70;;;;;;5092750;28;20371;-83
2020/12/02 10:26:05;;;;;;;54.13;32.00;;;9.20;74.80;;;;;;5092243;28;20072;-84
2020/12/02 10:28:41;;;;;;;40.97;27.17;;;9.20;75.90;;;;;;5093889;28;20085;-83
2020/12/02 10:31:20;;;;;;;40.88;24.58;;;9.10;77.30;;;;;;5092512;28;20142;-86
2020/12/02 10:34:13;;;;;;;37.75;21.45;;;9.60;76.20;;;;;;5091952;28;20237;-82
2020/12/02 10:36:44;;;;;;;31.92;21.15;;;8.80;77.00;;;;;;5091658;28;20048;-81
2020/12/02 10:39:14;;;;;;;;;;;9.00;78.90;;;;;;5093293;28;20572;-83
2020/12/02 10:42:41;;;;;;;36.72;23.02;;;9.30;77.40;;;;;;5092119;28;19904;-82
2020/12/02 10:45:16;;;;;;;38.60;22.58;;;9.20;77.60;;;;;;5044104;28;20086;-81
2020/12/02 10:48:10;;;;;;;39.03;22.60;;;9.20;78.20;;;;;;5070946;28;20025;-81
2020/12/02 10:50:38;;;;;;;38.28;23.48;;;8.80;78.60;;;;;;5049967;28;20059;-83
2020/12/02 10:53:11;;;;;;;32.38;21.50;;;8.30;80.50;;;;;;5050921;28;20503;-80
2020/12/02 10:55:37;;;;;;;35.38;20.92;;;8.50;81.00;;;;;;5051442;28;20025;-85
2020/12/02 10:58:21;;;;;;;32.42;20.58;;;8.80;81.00;;;;;;5051092;28;20020;-84
2020/12/02 11:00:56;;;;;;;28.52;18.88;;;9.30;79.00;;;;;;5081664;28;20019;-82
2020/12/02 11:03:26;;;;;;;31.80;19.63;;;9.70;77.90;;;;;;5086620;28;20118;-81
2020/12/02 11:06:04;;;;;;;30.20;18.80;;;10.10;76.00;;;;;;5092244;28;20107;-85
2020/12/02 11:08:36;;;;;;;32.95;19.35;;;10.50;73.40;;;;;;5070440;28;20210;-84
2020/12/02 11:11:23;;;;;;;34.47;19.63;;;10.20;73.90;;;;;;5070676;28;20105;-83
2020/12/02 11:14:10;;;;;;;30.58;18.00;;;9.90;75.20;;;;;;5071718;28;20028;-82
2020/12/02 11:16:45;;;;;;;29.45;18.05;;;10.50;74.10;;;;;;5052912;28;20366;-87
2020/12/02 11:19:39;;;;;;;34.95;18.73;;;10.60;73.10;;;;;;5050967;28;20044;-85
2020/12/02 11:22:48;;;;;;;28.42;18.83;;;10.70;72.30;;;;;;5069617;28;20021;-84
2020/12/02 11:25:26;;;;;;;29.70;18.10;;;11.10;70.80;;;;;;5072260;28;20030;-84
2020/12/02 11:27:51;;;;;;;29.55;18.45;;;11.30;68.80;;;;;;5072361;28;20023;-83
2020/12/02 11:30:40;;;;;;;28.65;18.38;;;11.00;68.30;;;;;;5071576;28;20091;-83
2020/12/02 11:33:26;;;;;;;28.70;19.38;;;11.30;67.60;;;;;;5071624;28;20033;-83
2020/12/02 11:36:06;;;;;;;31.63;19.52;;;11.10;68.30;;;;;;5086136;28;20040;-84
2020/12/02 11:38:52;;;;;;;;;;;11.50;67.50;;;;;;5091144;28;20067;-84
2020/12/02 11:41:32;;;;;;;26.15;16.65;;;11.60;67.20;;;;;;5091513;28;19912;-84
2020/12/02 11:44:06;;;;;;;30.27;17.67;;;11.50;66.10;;;;;;5090601;28;20093;-85
2020/12/02 11:46:34;;;;;;;28.65;18.33;;;11.60;66.90;;;;;;5056451;28;20024;-83
2020/12/02 11:49:14;;;;;;;30.60;17.98;;;11.60;66.30;;;;;;5069435;28;20056;-81
2020/12/02 11:52:06;;;;;;;29.55;17.75;;;11.50;66.80;;;;;;5070962;28;20103;-80
2020/12/02 11:54:33;;;;;;;27.88;17.42;;;12.30;66.60;;;;;;5050374;28;20024;-80
2020/12/02 11:56:59;;;;;;;31.02;16.83;;;12.90;62.80;;;;;;5066667;28;20029;-80
2020/12/02 11:59:32;;;;;;;25.83;16.67;;;13.40;63.20;;;;;;5070151;28;20023;-81
2020/12/02 12:02:28;;;;;;;30.42;18.33;;;13.60;61.50;;;;;;5069814;28;20470;-80
2020/12/02 12:05:15;;;;;;;27.92;17.55;;;12.70;62.40;;;;;;5070138;28;20032;-81
2020/12/02 12:08:00;;;;;;;26.02;16.83;;;12.70;62.30;;;;;;5077942;28;20038;-81
2020/12/02 12:10:49;;;;;;;30.10;18.48;;;13.00;61.80;;;;;;5078021;28;20029;-80
2020/12/02 12:13:26;;;;;;;28.73;18.05;;;13.40;59.60;;;;;;5074782;28;20078;-81
2020/12/02 12:16:05;;;;;;;28.58;16.73;;;12.00;61.60;;;;;;5072469;28;20074;-81
2020/12/02 12:18:51;;;;;;;26.40;17.98;;;13.20;60.60;;;;;;5069871;28;20364;-81
2020/12/02 12:21:20;;;;;;;29.48;18.65;;;13.00;57.90;;;;;;5068397;28;20048;-82
2020/12/02 12:23:59;;;;;;;28.55;18.58;;;13.10;59.50;;;;;;5070961;28;20025;-82
2020/12/02 12:26:30;;;;;;;29.05;19.27;;;13.20;59.20;;;;;;5070486;28;20029;-80
2020/12/02 12:28:56;;;;;;;27.52;18.50;;;12.80;60.50;;;;;;5070587;28;20480;-81
2020/12/02 12:31:43;;;;;;;29.08;17.38;;;13.50;58.60;;;;;;5072948;28;20127;-81
2020/12/02 12:34:23;;;;;;;29.65;18.85;;;13.20;58.20;;;;;;5071895;28;20091;-82
2020/12/02 12:36:56;;;;;;;30.00;17.60;;;13.30;58.10;;;;;;5069745;28;20053;-81
2020/12/02 12:39:44;;;;;;;29.08;17.52;;;13.60;58.30;;;;;;5072612;28;20032;-81
2020/12/02 12:42:15;;;;;;;33.13;15.88;;;13.30;59.10;;;;;;5068373;28;20780;-81
2020/12/02 12:44:41;;;;;;;24.33;15.38;;;13.10;58.80;;;;;;5061746;28;20024;-81
2020/12/02 12:47:23;;;;;;;27.15;15.93;;;13.30;60.90;;;;;;5069297;28;20166;-83
2020/12/02 12:49:49;;;;;;;19.40;13.45;;;13.70;58.80;;;;;;5076530;28;20069;-82
2020/12/02 12:52:18;;;;;;;23.17;15.05;;;14.10;60.00;;;;;;5070146;28;20097;-80
2020/12/02 12:54:44;;;;;;;24.50;15.93;;;14.20;58.60;;;;;;5070408;28;20511;-81
2020/12/02 12:57:17;;;;;;;22.88;14.50;;;14.20;54.60;;;;;;5070641;28;20032;-81
2020/12/02 12:59:43;;;;;;;21.77;13.68;;;15.50;54.30;;;;;;5070101;28;20024;-80
2020/12/02 13:02:21;;;;;;;23.48;15.50;;;17.00;51.20;;;;;;5068940;28;20047;-79